sensor_id;sensor_type;location;lat;lon;timestamp;pressure;altitude;pressure_sealevel;temperature;humidity
54546;BME280;40444;45.184;9.850;2023-10-19T00:01:19;100369.66;;;11.39;100.00
54546;BME280;40444;45.184;9.850;2023-10-19T00:04:05;100377.72;;;11.39;100.00
54546;BME280;40444;45.184;9.850;2023-10-19T00:06:52;100373.34;;;11.38;100.00
54546;BME280;40444;45.184;9.850;2023-10-19T00:09:22;100382.63;;;11.44;100.00
54546;BME280;40444;45.184;9.850;2023-10-19T00:11:58;100368.66;;;11.41;100.00
54546;BME280;40444;45.184;9.850;2023-10-19T00:14:42;100351.72;;;11.40;100.00
54546;BME280;40444;45.184;9.850;2023-10-19T00:17:19;100344.91;;;11.46;100.00
54546;BME280;40444;45.184;9.850;2023-10-19T00:20:27;100335.84;;;11.47;100.00
54546;BME280;40444;45.184;9.850;2023-10-19T00:23:22;100324.00;;;11.49;100.00
54546;BME280;40444;45.184;9.850;2023-10-19T00:25:59;100323.16;;;11.49;100.00
54546;BME280;40444;45.184;9.850;2023-10-19T00:28:53;100318.09;;;11.46;100.00
54546;BME280;40444;45.184;9.850;2023-10-19T00:31:28;100306.50;;;11.45;100.00
54546;BME280;40444;45.184;9.850;2023-10-19T00:34:06;100310.03;;;11.46;100.00
54546;BME280;40444;45.184;9.850;2023-10-19T00:36:37;100315.41;;;11.46;100.00
54546;BME280;40444;45.184;9.850;2023-10-19T00:39:08;100313.72;;;11.45;100.00
54546;BME280;40444;45.184;9.850;2023-10-19T00:41:45;100310.03;;;11.46;100.00
54546;BME280;40444;45.184;9.850;2023-10-19T00:44:17;100300.13;;;11.46;100.00
54546;BME280;40444;45.184;9.850;2023-10-19T00:47:05;100310.75;;;11.48;100.00
54546;BME280;40444;45.184;9.850;2023-10-19T00:49:40;100302.69;;;11.48;100.00
54546;BME280;40444;45.184;9.850;2023-10-19T00:52:14;100295.31;;;11.50;100.00
54546;BME280;40444;45.184;9.850;2023-10-19T00:54:53;100296.88;;;11.52;100.00
54546;BME280;40444;45.184;9.850;2023-10-19T00:57:27;100294.88;;;11.54;100.00
54546;BME280;40444;45.184;9.850;2023-10-19T01:00:02;100286.97;;;11.53;100.00
54546;BME280;40444;45.184;9.850;2023-10-19T01:02:40;100283.28;;;11.54;100.00
54546;BME280;40444;45.184;9.850;2023-10-19T01:05:14;100281.06;;;11.49;100.00
54546;BME280;40444;45.184;9.850;2023-10-19T01:07:43;100287.94;;;11.52;100.00
54546;BME280;40444;45.184;9.850;2023-10-19T01:10:13;100276.25;;;11.53;100.00
54546;BME280;40444;45.184;9.850;2023-10-19T01:12:56;100267.19;;;11.54;100.00
54546;BME280;40444;45.184;9.850;2023-10-19T01:15:27;100258.31;;;11.53;100.00
54546;BME280;40444;45.184;9.850;2023-10-19T01:17:58;100265.19;;;11.56;100.00
54546;BME280;40444;45.184;9.850;2023-10-19T01:20:29;100250.25;;;11.53;100.00
54546;BME280;40444;45.184;9.850;2023-10-19T01:23:07;100251.78;;;11.56;100.00
54546;BME280;40444;45.184;9.850;2023-10-19T01:25:50;100246.72;;;11.53;100.00
54546;BME280;40444;45.184;9.850;2023-10-19T01:29:05;100234.00;;;11.55;100.00
54546;BME280;40444;45.184;9.850;2023-10-19T01:32:53;100242.22;;;11.53;100.00
54546;BME280;40444;45.184;9.850;2023-10-19T01:35:23;100237.31;;;11.49;100.00
54546;BME280;40444;45.184;9.850;2023-10-19T01:37:53;100238.13;;;11.49;100.00
54546;BME280;40444;45.184;9.850;2023-10-19T01:40:38;100235.28;;;11.51;100.00
54546;BME280;40444;45.184;9.850;2023-10-19T01:43:15;100224.56;;;11.51;100.00
54546;BME280;40444;45.184;9.850;2023-10-19T01:46:05;100225.72;;;11.48;100.00
54546;BME280;40444;45.184;9.850;2023-10-19T01:48:42;100238.97;;;11.50;100.00
54546;BME280;40444;45.184;9.850;2023-10-19T01:51:11;100228.91;;;11.52;100.00
54546;BME280;40444;45.184;9.850;2023-10-19T01:53:43;100222.44;;;11.54;100.00
54546;BME280;40444;45.184;9.850;2023-10-19T01:56:15;100211.00;;;11.52;100.00
54546;BME280;40444;45.184;9.850;2023-10-19T01:58:49;100196.31;;;11.56;100.00
54546;BME280;40444;45.184;9.850;2023-10-19T02:01:20;100199.13;;;11.55;100.00
54546;BME280;40444;45.184;9.850;2023-10-19T02:03:49;100190.94;;;11.56;100.00
54546;BME280;40444;45.184;9.850;2023-10-19T02:06:24;100183.56;;;11.58;100.00
54546;BME280;40444;45.184;9.850;2023-10-19T02:09:01;100182.56;;;11.59;100.00
54546;BME280;40444;45.184;9.850;2023-10-19T02:11:52;100194.97;;;11.60;100.00
54546;BME280;40444;45.184;9.850;2023-10-19T02:14:21;100200.78;;;11.56;100.00
54546;BME280;40444;45.184;9.850;2023-10-19T02:16:56;100197.44;;;11.54;100.00
54546;BME280;40444;45.184;9.850;2023-10-19T02:19:26;100190.94;;;11.56;100.00
54546;BME280;40444;45.184;9.850;2023-10-19T02:21:57;100183.72;;;11.57;100.00
54546;BME280;40444;45.184;9.850;2023-10-19T02:24:26;100176.66;;;11.56;100.00
54546;BME280;40444;45.184;9.850;2023-10-19T02:26:56;100161.41;;;11.56;100.00
54546;BME280;40444;45.184;9.850;2023-10-19T02:29:25;100155.88;;;11.58;100.00
54546;BME280;40444;45.184;9.850;2023-10-19T02:31:55;100150.50;;;11.58;100.00
54546;BME280;40444;45.184;9.850;2023-10-19T02:34:25;100150.50;;;11.58;100.00
54546;BME280;40444;45.184;9.850;2023-10-19T02:36:54;100153.03;;;11.59;100.00
54546;BME280;40444;45.184;9.850;2023-10-19T02:39:22;100144.16;;;11.59;100.00
54546;BME280;40444;45.184;9.850;2023-10-19T02:41:56;100141.63;;;11.57;100.00
54546;BME280;40444;45.184;9.850;2023-10-19T02:44:25;100145.16;;;11.58;100.00
54546;BME280;40444;45.184;9.850;2023-10-19T02:46:55;100136.81;;;11.61;100.00
54546;BME280;40444;45.184;9.850;2023-10-19T02:49:30;100142.00;;;11.62;100.00
54546;BME280;40444;45.184;9.850;2023-10-19T02:51:58;100131.91;;;11.56;100.00
54546;BME280;40444;45.184;9.850;2023-10-19T02:54:32;100125.66;;;11.56;100.00
54546;BME280;40444;45.184;9.850;2023-10-19T02:57:05;100124.69;;;11.57;100.00
54546;BME280;40444;45.184;9.850;2023-10-19T02:59:38;100113.97;;;11.57;100.00
54546;BME280;40444;45.184;9.850;2023-10-19T03:02:07;100112.94;;;11.58;100.00
54546;BME280;40444;45.184;9.850;2023-10-19T03:04:46;100118.63;;;11.55;100.00
54546;BME280;40444;45.184;9.850;2023-10-19T03:07:14;100114.44;;;11.52;100.00
54546;BME280;40444;45.184;9.850;2023-10-19T03:09:45;100110.19;;;11.50;100.00
54546;BME280;40444;45.184;9.850;2023-10-19T03:12:26;100108.81;;;11.46;100.00
54546;BME280;40444;45.184;9.850;2023-10-19T03:14:56;100110.50;;;11.47;100.00
54546;BME280;40444;45.184;9.850;2023-10-19T03:17:24;100114.34;;;11.44;100.00
54546;BME280;40444;45.184;9.850;2023-10-19T03:19:54;100112.50;;;11.45;100.00
54546;BME280;40444;45.184;9.850;2023-10-19T03:22:24;100110.50;;;11.47;100.00
54546;BME280;40444;45.184;9.850;2023-10-19T03:24:53;100101.47;;;11.48;100.00
54546;BME280;40444;45.184;9.850;2023-10-19T03:27:42;100095.78;;;11.51;100.00
54546;BME280;40444;45.184;9.850;2023-10-19T03:30:12;100086.72;;;11.52;100.00
54546;BME280;40444;45.184;9.850;2023-10-19T03:32:44;100098.31;;;11.52;100.00
54546;BME280;40444;45.184;9.850;2023-10-19T03:35:13;100092.63;;;11.55;100.00
54546;BME280;40444;45.184;9.850;2023-10-19T03:37:43;100090.78;;;11.56;100.00
54546;BME280;40444;45.184;9.850;2023-10-19T03:40:17;100082.72;;;11.56;100.00
54546;BME280;40444;45.184;9.850;2023-10-19T03:42:55;100066.63;;;11.56;100.00
54546;BME280;40444;45.184;9.850;2023-10-19T03:45:24;100062.13;;;11.56;100.00
54546;BME280;40444;45.184;9.850;2023-10-19T03:47:54;100068.34;;;11.57;100.00
54546;BME280;40444;45.184;9.850;2023-10-19T03:50:28;100055.59;;;11.59;100.00
54546;BME280;40444;45.184;9.850;2023-10-19T03:53:02;100051.91;;;11.60;100.00
54546;BME280;40444;45.184;9.850;2023-10-19T03:55:36;100053.22;;;11.56;100.00
54546;BME280;40444;45.184;9.850;2023-10-19T03:58:24;100044.19;;;11.57;100.00
54546;BME280;40444;45.184;9.850;2023-10-19T04:00:55;100034.84;;;11.61;100.00
54546;BME280;40444;45.184;9.850;2023-10-19T04:03:31;100030.97;;;11.63;100.00
54546;BME280;40444;45.184;9.850;2023-10-19T04:06:00;100025.59;;;11.63;100.00
54546;BME280;40444;45.184;9.850;2023-10-19T04:08:41;100029.97;;;11.64;100.00
54546;BME280;40444;45.184;9.850;2023-10-19T04:11:19;100033.81;;;11.62;100.00
54546;BME280;40444;45.184;9.850;2023-10-19T04:13:52;100026.78;;;11.61;100.00
54546;BME280;40444;45.184;9.850;2023-10-19T04:16:22;100030.13;;;11.63;100.00
54546;BME280;40444;45.184;9.850;2023-10-19T04:18:57;100023.94;;;11.62;100.00
54546;BME280;40444;45.184;9.850;2023-10-19T04:21:27;100023.09;;;11.62;100.00
54546;BME280;40444;45.184;9.850;2023-10-19T04:23:57;100029.28;;;11.62;100.00
54546;BME280;40444;45.184;9.850;2023-10-19T04:26:27;100022.38;;;11.60;100.00
54546;BME280;40444;45.184;9.850;2023-10-19T04:28:56;100018.50;;;11.54;100.00
54546;BME280;40444;45.184;9.850;2023-10-19T04:31:25;100022.88;;;11.55;100.00
54546;BME280;40444;45.184;9.850;2023-10-19T04:33:55;100021.72;;;11.58;100.00
54546;BME280;40444;45.184;9.850;2023-10-19T04:36:24;100019.72;;;11.60;100.00
54546;BME280;40444;45.184;9.850;2023-10-19T04:38:58;100012.50;;;11.60;100.00
54546;BME280;40444;45.184;9.850;2023-10-19T04:41:31;100013.50;;;11.59;100.00
54546;BME280;40444;45.184;9.850;2023-10-19T04:44:02;100002.78;;;11.59;100.00
54546;BME280;40444;45.184;9.850;2023-10-19T17:00:50;99441.47;;;12.51;100.00
54546;BME280;40444;45.184;9.850;2023-10-19T17:05:06;99435.00;;;12.60;100.00
54546;BME280;40444;45.184;9.850;2023-10-19T17:10:14;99430.22;;;12.70;100.00
54546;BME280;40444;45.184;9.850;2023-10-19T17:32:52;99355.66;;;12.87;100.00
54546;BME280;40444;45.184;9.850;2023-10-19T17:42:28;99416.75;;;12.93;100.00
54546;BME280;40444;45.184;9.850;2023-10-19T17:46:38;99418.56;;;13.01;100.00
54546;BME280;40444;45.184;9.850;2023-10-19T17:49:43;99424.41;;;13.04;100.00
54546;BME280;40444;45.184;9.850;2023-10-19T18:18:27;99404.28;;;13.00;100.00
54546;BME280;40444;45.184;9.850;2023-10-19T18:31:11;99413.72;;;12.96;100.00
54546;BME280;40444;45.184;9.850;2023-10-19T18:34:49;99411.19;;;12.95;100.00
54546;BME280;40444;45.184;9.850;2023-10-19T18:38:32;99400.09;;;12.98;100.00
54546;BME280;40444;45.184;9.850;2023-10-19T18:42:37;99378.22;;;13.01;100.00
54546;BME280;40444;45.184;9.850;2023-10-19T18:56:24;99370.34;;;12.99;100.00
54546;BME280;40444;45.184;9.850;2023-10-19T19:01:07;99350.78;;;13.05;100.00
54546;BME280;40444;45.184;9.850;2023-10-19T19:10:04;99346.88;;;13.08;100.00
54546;BME280;40444;45.184;9.850;2023-10-19T20:07:56;99332.69;;;13.14;100.00
54546;BME280;40444;45.184;9.850;2023-10-19T20:22:00;99330.84;;;13.14;100.00
54546;BME280;40444;45.184;9.850;2023-10-19T20:31:34;99316.09;;;13.10;100.00
54546;BME280;40444;45.184;9.850;2023-10-19T20:35:36;99318.41;;;13.13;100.00
54546;BME280;40444;45.184;9.850;2023-10-19T20:40:36;99314.25;;;13.11;100.00
54546;BME280;40444;45.184;9.850;2023-10-19T20:44:38;99321.28;;;13.12;100.00
54546;BME280;40444;45.184;9.850;2023-10-19T20:47:27;99300.16;;;13.09;100.00
54546;BME280;40444;45.184;9.850;2023-10-19T21:05:55;99274.09;;;13.09;100.00
54546;BME280;40444;45.184;9.850;2023-10-19T21:10:17;99269.63;;;13.02;100.00
54546;BME280;40444;45.184;9.850;2023-10-19T21:24:59;99253.03;;;13.13;100.00
54546;BME280;40444;45.184;9.850;2023-10-19T21:28:26;99247.47;;;13.14;100.00
54546;BME280;40444;45.184;9.850;2023-10-19T21:32:33;99229.75;;;13.20;100.00
54546;BME280;40444;45.184;9.850;2023-10-19T21:40:27;99188.09;;;13.16;100.00
54546;BME280;40444;45.184;9.850;2023-10-19T21:44:47;99188.31;;;13.14;100.00
54546;BME280;40444;45.184;9.850;2023-10-19T21:48:07;99184.78;;;13.14;100.00
54546;BME280;40444;45.184;9.850;2023-10-19T21:52:46;99181.63;;;13.10;100.00
54546;BME280;40444;45.184;9.850;2023-10-19T21:57:22;99174.59;;;12.95;100.00
54546;BME280;40444;45.184;9.850;2023-10-19T22:01:32;99173.78;;;12.79;100.00
54546;BME280;40444;45.184;9.850;2023-10-19T22:05:42;99176.94;;;12.83;100.00
54546;BME280;40444;45.184;9.850;2023-10-19T22:10:20;99164.25;;;12.92;100.00
54546;BME280;40444;45.184;9.850;2023-10-19T22:14:30;99158.47;;;12.95;100.00
54546;BME280;40444;45.184;9.850;2023-10-19T22:18:07;99155.41;;;12.98;100.00
54546;BME280;40444;45.184;9.850;2023-10-19T22:21:15;99180.94;;;12.87;100.00
54546;BME280;40444;45.184;9.850;2023-10-19T22:25:49;99146.06;;;12.94;100.00
54546;BME280;40444;45.184;9.850;2023-10-19T22:29:25;99127.06;;;12.95;100.00
54546;BME280;40444;45.184;9.850;2023-10-19T22:33:11;99118.53;;;12.92;100.00
54546;BME280;40444;45.184;9.850;2023-10-19T22:36:32;99118.13;;;12.95;100.00
54546;BME280;40444;45.184;9.850;2023-10-19T22:39:37;99112.34;;;12.91;100.00
54546;BME280;40444;45.184;9.850;2023-10-19T22:42:22;99096.19;;;12.91;100.00
54546;BME280;40444;45.184;9.850;2023-10-19T22:44:56;99095.19;;;12.92;100.00
54546;BME280;40444;45.184;9.850;2023-10-19T22:47:26;99099.47;;;12.86;100.00
54546;BME280;40444;45.184;9.850;2023-10-19T22:50:16;99096.69;;;12.80;100.00
54546;BME280;40444;45.184;9.850;2023-10-19T22:53:04;99104.56;;;12.81;100.00
54546;BME280;40444;45.184;9.850;2023-10-19T22:56:29;99129.03;;;12.72;100.00
54546;BME280;40444;45.184;9.850;2023-10-19T22:59:28;99122.66;;;12.73;100.00
54546;BME280;40444;45.184;9.850;2023-10-19T23:02:12;99112.72;;;12.73;100.00
54546;BME280;40444;45.184;9.850;2023-10-19T23:04:57;99106.13;;;12.76;100.00
54546;BME280;40444;45.184;9.850;2023-10-19T23:07:30;99101.97;;;12.73;100.00
54546;BME280;40444;45.184;9.850;2023-10-19T23:10:04;99093.09;;;12.73;100.00
54546;BME280;40444;45.184;9.850;2023-10-19T23:12:40;99085.66;;;12.75;100.00
54546;BME280;40444;45.184;9.850;2023-10-19T23:15:15;99084.84;;;12.74;100.00
54546;BME280;40444;45.184;9.850;2023-10-19T23:18:04;99085.66;;;12.75;100.00
54546;BME280;40444;45.184;9.850;2023-10-19T23:20:37;99075.47;;;12.70;100.00
54546;BME280;40444;45.184;9.850;2023-10-19T23:23:08;99077.78;;;12.73;100.00
54546;BME280;40444;45.184;9.850;2023-10-19T23:25:49;99078.06;;;12.78;100.00
54546;BME280;40444;45.184;9.850;2023-10-19T23:28:38;99065.66;;;12.77;100.00
54546;BME280;40444;45.184;9.850;2023-10-19T23:31:09;99070.63;;;12.80;100.00
54546;BME280;40444;45.184;9.850;2023-10-19T23:33:39;99076.56;;;12.76;100.00
54546;BME280;40444;45.184;9.850;2023-10-19T23:36:08;99083.06;;;12.67;100.00
54546;BME280;40444;45.184;9.850;2023-10-19T23:38:39;99083.91;;;12.67;100.00
54546;BME280;40444;45.184;9.850;2023-10-19T23:41:08;99077.34;;;12.70;100.00
54546;BME280;40444;45.184;9.850;2023-10-19T23:43:38;99073.16;;;12.67;100.00
54546;BME280;40444;45.184;9.850;2023-10-19T23:46:07;99069.00;;;12.64;100.00
54546;BME280;40444;45.184;9.850;2023-10-19T23:48:36;99062.41;;;12.67;100.00
54546;BME280;40444;45.184;9.850;2023-10-19T23:51:11;99050.66;;;12.68;100.00
54546;BME280;40444;45.184;9.850;2023-10-19T23:53:43;99030.56;;;12.64;100.00
54546;BME280;40444;45.184;9.850;2023-10-19T23:56:14;99035.94;;;12.64;100.00
54546;BME280;40444;45.184;9.850;2023-10-19T23:58:44;99025.44;;;12.69;100.00
